KMER/MER METAR and TAF weather

Enter ICAO airport designator
Station Type Date Time Source
KMER METAR 2022/06/30 13:55 UTC NOAA

KMER 301355Z AUTO 36006KT 10SM CLR 18/12 A2998 RMK AO1


Station Type Date Time Source
KMER Decoded METAR 2022/06/30 13:55 UTC NOAA

Merced / Castle Air Force Base, CA, United States (KMER) 37-22N 120-34W 60M
Jun 30, 2022 - 09:55 AM EDT / 2022.06.30 1355 UTC
Wind: from the N (360 degrees) at 7 MPH (6 KT):0
Visibility: 10 mile(s):0
Sky conditions: clear
Temperature: 64 F (18 C)
Dew Point: 53 F (12 C)
Relative Humidity: 67%
Pressure (altimeter): 29.98 in. Hg (1015 hPa)
ob: KMER 301355Z AUTO 36006KT 10SM CLR 18/12 A2998 RMK AO1
cycle: 14

Station Type Date Time Source
KMER TAF 2022/06/30 12:33 UTC NOAA

TAF KMER 301128Z 3012/0112 VRB04KT P6SM SKC
FM302100 33009KT P6SM SKC

Example: see airport list